createdAt,value
2017-11-18T00:01:54.029Z,101707.88
2017-11-18T00:04:20.907Z,101709.49
2017-11-18T00:06:47.749Z,101710.77
2017-11-18T00:09:14.541Z,101697.81
2017-11-18T00:11:41.361Z,101683.86
2017-11-18T00:14:08.392Z,101678.47
2017-11-18T00:16:35.934Z,101676.05
2017-11-18T00:19:02.753Z,101682.67
2017-11-18T00:21:29.643Z,101685.31
2017-11-18T00:23:56.491Z,101692.39
2017-11-18T00:26:24.077Z,101685.61
2017-11-18T00:28:50.916Z,101683.61
2017-11-18T00:31:17.734Z,101679.27
2017-11-18T00:33:44.558Z,101677.42
2017-11-18T00:36:12.609Z,101677.90
2017-11-18T00:38:39.495Z,101682.88
2017-11-18T00:41:06.372Z,101683.25
2017-11-18T00:43:33.204Z,101686.28
2017-11-18T00:46:00.056Z,101682.02
2017-11-18T00:48:27.602Z,101683.23
2017-11-18T00:50:54.435Z,101673.66
2017-11-18T00:53:21.265Z,101672.22
2017-11-18T00:55:48.208Z,101681.69
2017-11-18T00:58:16.818Z,101672.94
2017-11-18T01:00:43.709Z,101681.58
2017-11-18T01:03:10.650Z,101683.09
2017-11-18T01:05:37.550Z,101681.63
2017-11-18T01:08:04.409Z,101674.17
2017-11-18T01:10:31.846Z,101674.66
2017-11-18T01:12:58.682Z,101672.14
2017-11-18T01:15:25.569Z,101664.87
2017-11-18T01:17:52.383Z,101659.89
2017-11-18T01:20:19.215Z,101660.37
2017-11-18T01:22:46.057Z,101655.83
2017-11-18T01:25:12.923Z,101654.97
2017-11-18T01:27:39.813Z,101646.05
2017-11-18T01:30:06.641Z,101644.59
2017-11-18T01:32:33.480Z,101639.73
2017-11-18T01:35:01.089Z,101636.59
2017-11-18T01:37:28.013Z,101640.64
2017-11-18T01:39:54.845Z,101635.83
2017-11-18T01:42:21.729Z,101635.12
2017-11-18T01:44:48.612Z,101630.70
2017-11-18T01:47:16.174Z,101623.05
2017-11-18T01:49:43.100Z,101629.48
2017-11-18T01:52:10.693Z,101620.83
2017-11-18T01:54:37.568Z,101617.63
2017-11-18T01:57:04.459Z,101620.44
2017-11-18T01:59:32.050Z,101608.89
2017-11-18T02:01:58.928Z,101607.55
2017-11-18T02:04:25.856Z,101611.91
2017-11-18T02:06:53.479Z,101605.73
2017-11-18T02:09:20.337Z,101602.07
2017-11-18T02:11:47.237Z,101610.30
2017-11-18T02:14:14.068Z,101601.36
2017-11-18T02:16:40.957Z,101589.20
2017-11-18T02:19:07.876Z,101579.67
2017-11-18T02:21:34.798Z,101573.13
2017-11-18T02:24:02.432Z,101568.39
2017-11-18T02:26:29.379Z,101575.35
2017-11-18T02:28:56.235Z,101566.39
2017-11-18T02:31:23.114Z,101563.66
2017-11-18T02:33:50.046Z,101550.81
2017-11-18T02:36:17.721Z,101553.46
2017-11-18T02:38:45.363Z,101553.30
2017-11-18T02:41:12.235Z,101543.74
2017-11-18T02:43:39.086Z,101545.20
2017-11-18T02:46:05.975Z,101547.62
2017-11-18T02:48:33.000Z,101540.50
2017-11-18T02:50:59.908Z,101535.94
2017-11-18T02:53:27.565Z,101535.17
2017-11-18T02:55:54.471Z,101529.45
2017-11-18T02:58:22.107Z,101530.00
2017-11-18T03:00:49.000Z,101529.94
2017-11-18T03:03:16.567Z,101536.00
2017-11-18T03:05:43.405Z,101526.00
2017-11-18T03:08:10.257Z,101526.27
2017-11-18T03:10:37.115Z,101529.27
2017-11-18T03:13:04.028Z,101524.22
2017-11-18T03:15:31.657Z,101524.91
2017-11-18T03:17:58.524Z,101522.73
2017-11-18T03:20:25.353Z,101522.36
2017-11-18T03:22:52.215Z,101517.08
2017-11-18T03:25:19.084Z,101511.87
2017-11-18T03:27:45.919Z,101510.03
2017-11-18T03:30:13.531Z,101508.82
2017-11-18T03:32:40.400Z,101507.58
2017-11-18T03:35:07.257Z,101504.59
2017-11-18T03:37:34.087Z,101506.38
2017-11-18T03:40:00.985Z,101506.31
2017-11-18T03:42:27.847Z,101501.03
2017-11-18T03:44:54.666Z,101502.95
2017-11-18T03:47:21.578Z,101500.66
2017-11-18T03:49:48.473Z,101496.95
2017-11-18T03:52:16.152Z,101500.58
2017-11-18T03:54:43.748Z,101498.86
2017-11-18T03:57:10.578Z,101494.09
2017-11-18T03:59:37.478Z,101497.35
2017-11-18T04:02:04.332Z,101496.98
2017-11-18T04:04:32.032Z,101496.50
2017-11-18T04:06:58.879Z,101489.52
2017-11-18T04:09:25.765Z,101485.06
2017-11-18T04:11:53.428Z,101477.02
2017-11-18T04:14:20.256Z,101483.86
2017-11-18T04:16:47.055Z,101477.17
2017-11-18T04:19:13.873Z,101474.17
2017-11-18T04:21:40.730Z,101471.78
2017-11-18T04:24:07.573Z,101470.25
2017-11-18T04:26:34.421Z,101464.52
2017-11-18T04:29:01.296Z,101461.84
2017-11-18T04:31:28.158Z,101463.44
2017-11-18T04:33:55.052Z,101463.06
2017-11-18T04:36:22.743Z,101458.71
2017-11-18T04:38:49.621Z,101450.39
2017-11-18T04:41:16.480Z,101447.31
2017-11-18T04:43:43.392Z,101441.73
2017-11-18T04:46:10.279Z,101435.09
2017-11-18T04:48:37.910Z,101428.09
2017-11-18T04:51:04.788Z,101429.48
2017-11-18T04:53:31.652Z,101427.47
2017-11-18T04:55:58.516Z,101428.61
2017-11-18T04:58:25.363Z,101426.86
2017-11-18T05:00:52.211Z,101419.67
2017-11-18T05:03:19.101Z,101410.30
2017-11-18T05:05:45.994Z,101405.63
2017-11-18T05:08:13.616Z,101403.02
2017-11-18T05:10:40.509Z,101405.41
2017-11-18T05:13:07.360Z,101397.16
2017-11-18T05:15:34.208Z,101399.94
2017-11-18T05:18:01.082Z,101393.36
2017-11-18T05:20:27.985Z,101390.55
2017-11-18T05:22:55.539Z,101398.34
2017-11-18T05:25:22.441Z,101385.19
2017-11-18T05:27:49.290Z,101388.27
2017-11-18T05:30:16.265Z,101383.27
2017-11-18T05:32:43.080Z,101374.64
2017-11-18T05:35:09.885Z,101377.87
2017-11-18T05:37:36.798Z,101376.19
2017-11-18T05:40:03.634Z,101370.92
2017-11-18T05:42:30.454Z,101378.70
2017-11-18T05:44:58.005Z,101370.45
2017-11-18T05:47:24.843Z,101362.55
2017-11-18T05:49:51.651Z,101360.01
2017-11-18T05:52:19.194Z,101351.10
2017-11-18T05:54:46.013Z,101352.37
2017-11-18T05:57:12.844Z,101354.55
2017-11-18T05:59:40.458Z,101350.59
2017-11-18T06:02:07.365Z,101352.30
2017-11-18T06:04:34.241Z,101351.58
2017-11-18T06:07:01.051Z,101352.52
2017-11-18T06:09:28.454Z,101357.94
2017-11-18T06:11:55.287Z,101355.13
2017-11-18T06:14:22.152Z,101354.77
2017-11-18T06:16:48.976Z,101348.66
2017-11-18T06:19:15.874Z,101345.34
2017-11-18T06:21:42.917Z,101344.81
2017-11-18T06:24:09.779Z,101337.95
2017-11-18T06:26:36.579Z,101336.65
2017-11-18T06:29:03.406Z,101331.84
2017-11-18T06:31:30.212Z,101327.88
2017-11-18T06:33:57.249Z,101336.53
2017-11-18T06:36:24.108Z,101334.86
2017-11-18T06:38:50.971Z,101331.13
2017-11-18T06:41:17.783Z,101331.49
2017-11-18T06:43:45.398Z,101326.72
2017-11-18T06:46:12.257Z,101333.75
2017-11-18T06:48:39.075Z,101334.19
2017-11-18T06:51:05.987Z,101333.36
2017-11-18T06:53:32.858Z,101325.97
2017-11-18T06:55:59.687Z,101324.11
2017-11-18T06:58:26.477Z,101326.66
2017-11-18T07:00:53.336Z,101330.14
2017-11-18T07:03:20.159Z,101333.27
2017-11-18T07:05:47.722Z,101333.59
2017-11-18T07:08:15.330Z,101342.84
2017-11-18T07:10:42.170Z,101333.00
2017-11-18T07:13:09.737Z,101334.83
2017-11-18T07:15:36.565Z,101334.47
2017-11-18T07:18:03.415Z,101330.94
2017-11-18T07:20:30.267Z,101335.54
2017-11-18T07:22:57.138Z,101345.63
2017-11-18T07:25:23.980Z,101338.32
2017-11-18T07:27:50.871Z,101350.03
2017-11-18T07:30:17.705Z,101343.20
2017-11-18T07:32:44.621Z,101341.69
2017-11-18T07:35:11.425Z,101339.19
2017-11-18T07:37:38.250Z,101332.48
2017-11-18T07:40:05.051Z,101328.20
2017-11-18T07:42:31.857Z,101332.72
2017-11-18T07:44:59.410Z,101325.80
2017-11-18T07:47:26.646Z,101322.20
2017-11-18T07:49:53.494Z,101318.50
2017-11-18T07:52:21.290Z,101323.27
2017-11-18T07:54:48.219Z,101321.64
2017-11-18T07:57:16.542Z,101311.80
2017-11-18T07:59:43.362Z,101306.66
2017-11-18T08:02:10.195Z,101310.20
2017-11-18T08:04:37.040Z,101300.55
2017-11-18T08:07:03.932Z,101298.24
2017-11-18T08:09:30.766Z,101300.94
2017-11-18T08:11:57.554Z,101294.83
2017-11-18T08:14:24.352Z,101286.88
2017-11-18T08:16:51.931Z,101291.07
2017-11-18T08:19:20.457Z,101292.34
2017-11-18T08:21:47.254Z,101291.64
2017-11-18T08:24:14.114Z,101286.41
2017-11-18T08:26:40.961Z,101291.42
2017-11-18T08:29:07.830Z,101288.32
2017-11-18T08:31:35.598Z,101283.27
2017-11-18T08:34:02.482Z,101282.86
2017-11-18T08:36:35.557Z,101274.95
2017-11-18T08:39:02.584Z,101271.94
2017-11-18T08:41:30.170Z,101268.27
2017-11-18T08:43:57.734Z,101268.83
2017-11-18T08:46:25.483Z,101260.92
2017-11-18T08:48:52.305Z,101255.42
2017-11-18T08:51:19.166Z,101254.42
2017-11-18T08:53:46.046Z,101255.42
2017-11-18T08:56:13.138Z,101254.75
2017-11-18T08:58:40.002Z,101257.33
2017-11-18T09:01:06.870Z,101258.55
2017-11-18T09:03:33.743Z,101250.48
2017-11-18T09:06:00.684Z,101253.27
2017-11-18T09:08:27.527Z,101246.23
2017-11-18T09:10:55.087Z,101244.66
2017-11-18T09:13:21.923Z,101238.10
2017-11-18T09:15:49.489Z,101229.14
2017-11-18T09:18:17.088Z,101215.15
2017-11-18T09:20:44.047Z,101217.87
2017-11-18T09:23:10.921Z,101208.11
2017-11-18T09:25:37.762Z,101200.52
2017-11-18T09:28:05.341Z,101209.45
2017-11-18T09:30:32.900Z,101202.42
2017-11-18T09:32:59.711Z,101210.28
2017-11-18T09:35:26.529Z,101198.50
2017-11-18T09:37:54.237Z,101206.34
2017-11-18T09:40:21.076Z,101210.78
2017-11-18T09:42:48.675Z,101201.16
2017-11-18T09:45:15.526Z,101204.18
2017-11-18T09:47:43.118Z,101205.91
2017-11-18T09:50:10.044Z,101204.89
2017-11-18T09:52:37.022Z,101191.01
2017-11-18T09:55:04.597Z,101194.36
2017-11-18T09:57:32.200Z,101199.33
2017-11-18T09:59:59.025Z,101193.34
2017-11-18T10:02:25.852Z,101195.97
2017-11-18T10:04:52.710Z,101190.34
2017-11-18T10:07:19.592Z,101198.25
2017-11-18T10:09:46.434Z,101194.28
2017-11-18T10:12:13.309Z,101188.10
2017-11-18T10:14:40.190Z,101197.62
2017-11-18T10:17:07.005Z,101192.28
2017-11-18T10:19:33.860Z,101190.50
2017-11-18T10:22:00.689Z,101191.55
2017-11-18T10:24:27.510Z,101187.08
2017-11-18T10:26:54.354Z,101184.26
2017-11-18T10:29:21.202Z,101183.73
2017-11-18T10:31:48.837Z,101174.06
2017-11-18T10:34:16.453Z,101179.61
2017-11-18T10:36:43.436Z,101183.00
2017-11-18T10:39:10.294Z,101159.44
2017-11-18T10:41:37.209Z,101163.95
2017-11-18T10:44:04.837Z,101158.70
2017-11-18T10:46:31.741Z,101153.41
2017-11-18T10:48:58.650Z,101141.01
2017-11-18T10:51:25.551Z,101130.45
2017-11-18T10:53:52.430Z,101136.97
2017-11-18T10:56:19.283Z,101122.09
2017-11-18T10:58:46.148Z,101123.89
2017-11-18T11:01:13.031Z,101115.42
2017-11-18T11:03:40.618Z,101123.69
2017-11-18T11:06:07.532Z,101117.07
2017-11-18T11:08:35.225Z,101118.00
2017-11-18T11:11:02.169Z,101105.14
2017-11-18T11:13:29.079Z,101101.61
2017-11-18T11:15:56.644Z,101085.08
2017-11-18T11:18:24.267Z,101069.94
2017-11-18T11:20:51.141Z,101069.77
2017-11-18T11:23:18.006Z,101064.79
2017-11-18T11:25:44.948Z,101062.09
2017-11-18T11:28:11.786Z,101060.36
2017-11-18T11:30:39.745Z,101061.59
2017-11-18T11:33:06.571Z,101049.34
2017-11-18T11:35:33.383Z,101056.23
2017-11-18T11:38:00.993Z,101049.12
2017-11-18T11:40:27.846Z,101040.75
2017-11-18T11:42:54.793Z,101027.19
2017-11-18T11:45:22.472Z,101026.73
2017-11-18T11:47:50.089Z,101028.69
2017-11-18T11:50:17.028Z,101029.38
2017-11-18T11:52:43.901Z,101031.52
2017-11-18T11:55:10.814Z,101021.88
2017-11-18T11:57:37.727Z,101021.31
2017-11-18T12:00:04.705Z,101020.06
2017-11-18T12:02:31.553Z,101016.95
2017-11-18T12:04:58.426Z,101009.50
2017-11-18T12:07:25.411Z,101016.08
2017-11-18T12:09:52.290Z,101009.52
2017-11-18T12:12:19.354Z,100999.95
2017-11-18T12:14:46.243Z,101007.14
2017-11-18T12:17:13.984Z,101007.06
2017-11-18T12:19:40.856Z,101006.13
2017-11-18T12:22:07.916Z,101007.83
2017-11-18T12:24:34.872Z,101009.52
2017-11-18T12:27:01.750Z,101001.95
2017-11-18T12:29:28.671Z,101003.77
2017-11-18T12:31:55.546Z,101000.43
2017-11-18T12:34:23.636Z,100998.80
2017-11-18T12:36:50.587Z,101004.52
2017-11-18T12:39:17.536Z,100974.16
2017-11-18T12:41:44.789Z,100970.12
2017-11-18T12:44:12.365Z,100966.61
2017-11-18T12:46:40.104Z,100967.48
2017-11-18T12:49:06.998Z,100959.58
2017-11-18T12:51:33.845Z,100953.83
2017-11-18T12:54:00.687Z,100955.83
2017-11-18T12:56:27.555Z,100964.38
2017-11-18T12:58:54.601Z,100954.66
2017-11-18T13:01:21.488Z,100948.84
2017-11-18T13:03:49.044Z,100949.89
2017-11-18T13:06:15.859Z,100944.28
2017-11-18T13:08:43.438Z,100944.94
2017-11-18T13:11:11.030Z,100931.47
2017-11-18T13:13:37.871Z,100932.41
2017-11-18T13:16:05.446Z,100921.34
2017-11-18T13:18:33.157Z,100920.81
2017-11-18T13:20:59.995Z,100919.05
2017-11-18T13:23:27.744Z,100915.93
2017-11-18T13:25:54.598Z,100904.08
2017-11-18T13:28:21.812Z,100917.78
2017-11-18T13:30:49.418Z,100910.45
2017-11-18T13:33:17.093Z,100915.03
2017-11-18T13:35:44.133Z,100903.61
2017-11-18T13:38:11.735Z,100903.06
2017-11-18T13:40:38.659Z,100906.50
2017-11-18T13:43:06.297Z,100903.98
2017-11-18T13:45:33.152Z,100905.48
2017-11-18T13:48:01.352Z,100897.52
2017-11-18T13:50:28.298Z,100891.76
2017-11-18T13:52:55.170Z,100884.44
2017-11-18T13:55:22.038Z,100894.58
2017-11-18T13:57:48.934Z,100883.30
2017-11-18T14:00:16.579Z,100899.19
2017-11-18T14:02:43.869Z,100894.71
2017-11-18T14:05:10.853Z,100895.56
2017-11-18T14:07:37.728Z,100887.26
2017-11-18T14:10:04.666Z,100889.59
2017-11-18T14:12:31.777Z,100899.93
2017-11-18T14:14:58.649Z,100884.47
2017-11-18T14:17:25.532Z,100892.47
2017-11-18T14:19:52.485Z,100880.94
2017-11-18T14:22:19.435Z,100895.56
2017-11-18T14:24:46.328Z,100898.70
2017-11-18T14:27:13.226Z,100894.24
2017-11-18T14:29:40.122Z,100892.95
2017-11-18T14:32:07.018Z,100888.42
2017-11-18T14:34:33.950Z,100898.14
2017-11-18T14:37:00.890Z,100889.80
2017-11-18T14:39:27.865Z,100892.83
2017-11-18T14:41:55.324Z,100886.36
2017-11-18T14:44:22.746Z,100897.42
2017-11-18T14:46:49.656Z,100902.41
2017-11-18T14:49:19.777Z,100891.75
2017-11-18T14:54:51.495Z,100874.96
2017-11-18T14:57:19.246Z,100878.83
2017-11-18T14:59:49.197Z,100876.78
2017-11-18T15:02:16.947Z,100865.70
2017-11-18T15:04:43.899Z,100869.63
2017-11-18T15:07:10.865Z,100868.83
2017-11-18T15:09:38.533Z,100865.47
2017-11-18T15:12:05.802Z,100862.33
2017-11-18T16:09:53.310Z,100843.57
2017-11-18T16:12:20.257Z,100847.45
2017-11-18T16:14:48.803Z,100828.75
2017-11-18T16:17:15.833Z,100847.16
2017-11-18T16:19:42.841Z,100842.52
2017-11-18T16:22:09.811Z,100842.38
2017-11-18T16:24:36.800Z,100848.31
2017-11-18T16:27:03.733Z,100881.48
2017-11-18T16:29:30.675Z,100897.50
2017-11-18T16:31:57.624Z,100900.09
2017-11-18T16:34:24.596Z,100904.79
2017-11-18T16:36:52.759Z,100902.87
2017-11-18T16:39:19.968Z,100907.13
2017-11-18T16:41:47.157Z,100916.33
2017-11-18T16:44:14.294Z,100930.38
2017-11-18T16:46:42.052Z,100919.59
2017-11-18T16:49:09.097Z,100918.72
2017-11-18T16:51:36.572Z,100925.02
2017-11-18T16:54:04.673Z,100917.95
2017-11-18T16:56:33.240Z,100921.77
2017-11-18T16:59:00.244Z,100927.44
2017-11-18T17:01:27.347Z,100925.10
2017-11-18T17:03:55.114Z,100913.09
2017-11-18T17:06:22.072Z,100913.77
2017-11-18T17:08:49.035Z,100910.56
2017-11-18T17:11:16.058Z,100914.51
2017-11-18T17:13:45.212Z,100911.97
2017-11-18T17:16:12.144Z,100905.03
2017-11-18T17:18:39.911Z,100902.22
2017-11-18T17:21:07.101Z,100900.61
2017-11-18T17:23:34.169Z,100900.53
2017-11-18T17:26:01.054Z,100894.36
2017-11-18T17:28:28.003Z,100891.16
2017-11-18T17:30:54.904Z,100892.77
2017-11-18T17:33:25.841Z,100889.22
2017-11-18T17:35:53.639Z,100888.88
2017-11-18T17:38:20.582Z,100888.93
2017-11-18T17:40:47.765Z,100893.67
2017-11-18T17:43:14.688Z,100894.06
2017-11-18T17:45:41.820Z,100897.78
2017-11-18T17:48:09.495Z,100893.48
2017-11-18T17:50:37.201Z,100891.66
2017-11-18T17:53:04.764Z,100889.25
2017-11-18T17:55:32.181Z,100875.05
2017-11-18T17:57:59.346Z,100877.42
2017-11-18T18:00:26.468Z,100874.00
2017-11-18T18:02:53.474Z,100866.88
2017-11-18T18:05:20.411Z,100866.61
2017-11-18T18:07:49.280Z,100870.50
2017-11-18T18:10:19.809Z,100865.78
2017-11-18T18:12:48.892Z,100875.77
2017-11-18T18:15:16.028Z,100874.52
2017-11-18T18:17:43.794Z,100863.06
2017-11-18T18:20:11.625Z,100872.94
2017-11-18T18:22:38.749Z,100861.83
2017-11-18T18:25:06.325Z,100855.70
2017-11-18T18:27:33.382Z,100857.39
2017-11-18T18:30:00.518Z,100856.81
2017-11-18T18:32:27.680Z,100849.45
2017-11-18T18:34:55.042Z,100849.91
2017-11-18T18:37:21.979Z,100848.02
2017-11-18T18:39:49.678Z,100847.39
2017-11-18T18:42:17.093Z,100837.77
2017-11-18T18:44:44.174Z,100836.77
2017-11-18T18:47:11.840Z,100837.78
2017-11-18T18:49:38.847Z,100827.27
2017-11-18T18:52:05.842Z,100816.95
2017-11-18T18:54:32.786Z,100828.28
2017-11-18T18:56:59.731Z,100834.46
2017-11-18T18:59:27.360Z,100824.70
2017-11-18T19:01:54.277Z,100831.28
2017-11-18T19:04:22.424Z,100836.97
2017-11-18T19:06:49.994Z,100838.34
2017-11-18T19:09:17.330Z,100829.56
2017-11-18T19:11:44.667Z,100839.08
2017-11-18T19:14:12.322Z,100855.05
2017-11-18T19:16:40.652Z,100862.35
2017-11-18T19:19:07.570Z,100864.00
2017-11-18T19:21:34.773Z,100860.25
2017-11-18T19:24:02.409Z,100860.39
2017-11-18T19:26:29.294Z,100855.85
2017-11-18T19:28:56.216Z,100862.35
2017-11-18T19:31:23.434Z,100861.84
2017-11-18T19:33:51.090Z,100861.36
2017-11-18T19:36:17.991Z,100867.69
2017-11-18T19:38:44.841Z,100849.55
2017-11-18T19:41:11.768Z,100848.08
2017-11-18T19:43:39.486Z,100843.51
2017-11-18T19:46:06.376Z,100842.33
2017-11-18T19:48:34.045Z,100836.52
2017-11-18T19:51:01.897Z,100826.72
2017-11-18T19:53:28.885Z,100829.72
2017-11-18T19:55:57.669Z,100812.52
2017-11-18T19:58:26.503Z,100816.22
2017-11-18T20:00:55.208Z,100811.78
2017-11-18T20:03:24.977Z,100817.59
2017-11-18T20:05:53.771Z,100811.28
2017-11-18T20:08:21.967Z,100805.29
2017-11-18T20:10:50.235Z,100803.03
2017-11-18T20:13:19.034Z,100797.28
2017-11-18T20:15:47.037Z,100800.53
2017-11-18T20:18:15.508Z,100796.23
2017-11-18T20:20:43.097Z,100796.34
2017-11-18T20:23:11.188Z,100803.34
2017-11-18T20:25:40.463Z,100801.55
2017-11-18T20:28:10.048Z,100794.03
2017-11-18T20:30:38.408Z,100801.66
2017-11-18T20:33:06.995Z,100801.91
2017-11-18T20:35:35.715Z,100802.34
2017-11-18T20:38:04.391Z,100790.97
2017-11-18T20:40:32.737Z,100795.87
2017-11-18T20:42:59.606Z,100796.77
2017-11-18T20:45:27.244Z,100788.84
2017-11-18T20:47:54.125Z,100787.83
2017-11-18T20:50:21.101Z,100777.34
2017-11-18T20:52:49.535Z,100786.11
2017-11-18T20:55:17.993Z,100777.24
2017-11-18T20:57:46.386Z,100778.69
2017-11-18T21:00:15.148Z,100780.67
2017-11-18T21:02:44.814Z,100776.11
2017-11-18T21:05:13.345Z,100781.61
2017-11-18T21:07:41.661Z,100780.99
2017-11-18T21:10:10.746Z,100785.61
2017-11-18T21:12:38.013Z,100790.16
2017-11-18T21:15:06.593Z,100786.87
2017-11-18T21:17:35.082Z,100785.74
2017-11-18T21:20:04.060Z,100788.05
2017-11-18T21:22:33.160Z,100780.10
2017-11-18T21:25:02.038Z,100782.63
2017-11-18T21:27:30.444Z,100768.67
2017-11-18T21:29:59.282Z,100770.31
2017-11-18T21:32:28.192Z,100761.31
2017-11-18T21:34:56.948Z,100772.06
2017-11-18T21:37:26.146Z,100769.05
2017-11-18T21:39:54.749Z,100764.95
2017-11-18T21:42:23.865Z,100765.08
2017-11-18T21:44:51.274Z,100762.86
2017-11-18T21:47:19.532Z,100755.00
2017-11-18T21:49:47.470Z,100745.74
2017-11-18T21:52:16.174Z,100754.69
2017-11-18T21:54:43.860Z,100748.06
2017-11-18T21:57:11.434Z,100747.26
2017-11-18T21:59:39.036Z,100756.88
2017-11-18T22:02:06.600Z,100758.56
2017-11-18T22:04:33.979Z,100762.00
2017-11-18T22:07:01.006Z,100757.81
2017-11-18T22:09:28.736Z,100751.50
2017-11-18T22:11:55.903Z,100751.12
2017-11-18T22:14:23.676Z,100746.13
2017-11-18T22:16:50.565Z,100746.64
2017-11-18T22:19:17.471Z,100741.56
2017-11-18T22:21:44.383Z,100739.91
2017-11-18T22:24:11.338Z,100730.95
2017-11-18T22:26:38.272Z,100735.34
2017-11-18T22:29:05.136Z,100738.04
2017-11-18T22:31:31.976Z,100732.72
2017-11-18T22:33:59.613Z,100734.91
2017-11-18T22:36:26.439Z,100745.47
2017-11-18T22:38:53.367Z,100734.53
2017-11-18T22:41:20.960Z,100735.77
2017-11-18T22:43:47.792Z,100738.97
2017-11-18T22:46:14.652Z,100736.45
2017-11-18T22:48:41.477Z,100737.64
2017-11-18T22:51:08.326Z,100738.27
2017-11-18T22:53:35.910Z,100736.53
2017-11-18T22:56:02.730Z,100723.61
2017-11-18T22:58:30.339Z,100718.67
2017-11-18T23:00:57.275Z,100718.48
2017-11-18T23:03:24.885Z,100713.49
2017-11-18T23:05:51.781Z,100715.05
2017-11-18T23:08:18.641Z,100709.73
2017-11-18T23:10:45.492Z,100716.36
2017-11-18T23:13:12.346Z,100716.98
2017-11-18T23:15:39.234Z,100724.92
2017-11-18T23:18:06.100Z,100730.54
2017-11-18T23:20:32.998Z,100730.22
2017-11-18T23:22:59.827Z,100730.66
2017-11-18T23:25:26.911Z,100724.61
2017-11-18T23:27:54.474Z,100726.41
2017-11-18T23:30:21.524Z,100715.75
2017-11-18T23:32:48.406Z,100716.94
2017-11-18T23:35:16.048Z,100721.10
2017-11-18T23:37:42.929Z,100722.99
2017-11-18T23:40:09.818Z,100721.23
2017-11-18T23:42:39.612Z,100717.23
2017-11-18T23:45:07.721Z,100711.23
2017-11-18T23:47:34.748Z,100714.25
2017-11-18T23:50:01.862Z,100707.75
2017-11-18T23:52:29.504Z,100710.12
2017-11-18T23:54:56.421Z,100702.85
2017-11-18T23:57:24.570Z,100692.68
2017-11-18T23:59:51.465Z,100698.30
